HECA Airport Information

Runway Information
Runway 05R Length 13124 ft width 197 ft Elevation 382 ft Threshold N/A Heading 49
Runway 23L Length 13124 ft Width 197 ft Elevation 375 ft Threshold N/A Heading 229
Runway 05L Length 10830 ft width 197 ft Elevation 190 ft Threshold N/A Heading 49
Runway 23R Length 10830 ft Width 197 ft Elevation 199 ft Threshold N/A Heading 229
Runway 05C Length 13120 ft width 197 ft Elevation 382 ft Threshold N/A Heading 45
Runway 23C Length 13120 ft Width 197 ft Elevation ft Threshold N/A Heading 225
Airport Frequencies
Type APP Name APP Frequency 119.05 MHZ
Type ATIS Name ATIS Frequency 122.6 MHZ
Type GND Name GND Frequency 121.9 MHZ
Type MISC Name VOLMET Frequency 126.2 MHZ
Type PFLT Name PREFLIGHT Frequency 120.1 MHZ
Type TWR Name TWR Frequency 118.1 MHZ
Type rdo Name cairo radi Frequency 11.3 MHZ
Type Volmet Name Frequency 124.6 MHZ
Airport Navaids
Type NDB Name Cairo Frequency 310 KHZ
Type VOR-DME Name Cairo Frequency 112500 KHZ
Type VOR-DME Name Cairo Frequency 115200 KHZ
Type NDB Name Cairo Frequency 317 KHZ
Airport Weather Information & NOTAM
ADDS - METARS form results

(1040 UTC 30 January 2023)
Data provider http://aviationweather.gov/metar/data/
 
METAR text: HECA 301030Z 30004KT CAVOK 19/08 Q1013 NOSIG
Conditions at: HECA (CAIRO INTL AIRPO, EG) observed 1030 UTC 30 January 2023
Temperature: 19.0°C (66°F)
Dewpoint: 8.0°C (46°F) [RH = 49%]
Pressure (altimeter): 29.91 inches Hg (1013.0 mb)
Winds: from the WNW (300 degrees) at 5 MPH (4 knots; 2.1 m/s)
Visibility: 6 or more miles (10+ km)
Ceiling: ceiling and visibility are OK
Clouds: unknown
Weather: no significant weather observed at this time

METAR text: HECA 301000Z 34005KT CAVOK 18/08 Q1014
Conditions at: HECA (CAIRO INTL AIRPO, EG) observed 1000 UTC 30 January 2023
Temperature: 18.0°C (64°F)
Dewpoint: 8.0°C (46°F) [RH = 52%]
Pressure (altimeter): 29.94 inches Hg (1014.0 mb)
Winds: from the NNW (340 degrees) at 6 MPH (5 knots; 2.6 m/s)
Visibility: 6 or more miles (10+ km)
Ceiling: ceiling and visibility are OK
Clouds: unknown
Weather: no significant weather observed at this time

Forecast for: HECA (CAIRO INTL AIRPO, EG)
Text: TAF HECA 300500Z 3006/3112 VRB03KT CAVOK
Forecast period: 0600 to 1000 UTC 30 January 2023
Forecast type: FROM: standard forecast or significant change
Winds: variable direction winds at 3 MPH (3 knots; 1.5 m/s)
Visibility: 6 or more miles (10+ km)
Ceiling: unknown
Clouds: missing
Weather: NSW  (no significant weather)
Text: BECMG 3010/3012 33010KT
Forecast period: 1000 UTC 30 January 2023 to 1200 UTC 31 January 2023
Forecast type: BECOMING: Conditions expected to become as follows by 1200 UTC 30 January 2023
Winds: from the NNW (330 degrees) at 12 MPH (10 knots; 5.1 m/s)
Visibility: 6 or more miles (10+ km)
Ceiling: unknown
Clouds: missing
Weather: NSW  (no significant weather)